createdAt,value
2018-07-10T00:00:24.720Z,0
2018-07-10T00:01:34.125Z,0
2018-07-10T00:02:44.063Z,0
2018-07-10T00:03:53.542Z,0
2018-07-10T00:05:02.695Z,0
2018-07-10T00:06:11.853Z,0
2018-07-10T00:07:21.252Z,0
2018-07-10T00:08:30.929Z,0
2018-07-10T00:09:40.619Z,0
2018-07-10T00:10:49.789Z,0
2018-07-10T00:11:58.946Z,0
2018-07-10T00:13:09.020Z,0
2018-07-10T00:14:18.436Z,0
2018-07-10T00:15:27.859Z,0
2018-07-10T00:16:36.771Z,0
2018-07-10T00:17:46.177Z,0
2018-07-10T00:18:55.094Z,0
2018-07-10T00:20:03.984Z,0
2018-07-10T00:21:12.896Z,0
2018-07-10T00:22:22.569Z,0
2018-07-10T00:23:32.000Z,0
2018-07-10T00:24:41.424Z,0
2018-07-10T00:25:50.326Z,0
2018-07-10T00:27:00.027Z,0
2018-07-10T00:28:09.441Z,0
2018-07-10T00:29:18.597Z,0
2018-07-10T00:30:28.017Z,0
2018-07-10T00:31:36.926Z,0
2018-07-10T00:32:45.812Z,0
2018-07-10T00:33:55.212Z,0
2018-07-10T00:35:04.374Z,0
2018-07-10T00:36:14.301Z,0
2018-07-10T00:37:24.000Z,0
2018-07-10T00:38:33.420Z,0
2018-07-10T00:39:42.129Z,0
2018-07-10T00:40:51.033Z,0
2018-07-10T00:42:00.474Z,0
2018-07-10T00:43:10.143Z,0
2018-07-10T00:44:19.309Z,0
2018-07-10T00:45:28.987Z,0
2018-07-10T00:46:37.650Z,0
2018-07-10T00:47:47.332Z,0
2018-07-10T00:48:57.078Z,0
2018-07-10T00:50:06.750Z,0
2018-07-10T00:51:16.151Z,0
2018-07-10T00:52:25.300Z,0
2018-07-10T00:53:34.706Z,0
2018-07-10T00:54:44.384Z,0
2018-07-10T00:55:53.796Z,0
2018-07-10T00:57:03.249Z,0
2018-07-10T00:58:12.680Z,0
2018-07-10T00:59:21.837Z,0
2018-07-10T01:00:30.988Z,0
2018-07-10T01:01:40.151Z,0
2018-07-10T01:02:49.298Z,0
2018-07-10T01:03:58.732Z,0
2018-07-10T01:05:08.409Z,0
2018-07-10T01:06:17.558Z,0
2018-07-10T01:07:26.474Z,0
2018-07-10T01:08:35.876Z,0
2018-07-10T01:09:45.288Z,0
2018-07-10T01:10:54.970Z,0
2018-07-10T01:12:04.397Z,0
2018-07-10T01:13:14.341Z,0
2018-07-10T01:14:23.509Z,0
2018-07-10T01:15:33.195Z,0
2018-07-10T01:16:42.337Z,0
2018-07-10T01:17:51.755Z,0
2018-07-10T01:19:01.118Z,0
2018-07-10T01:20:10.880Z,0
2018-07-10T01:21:20.555Z,0
2018-07-10T01:22:29.978Z,0
2018-07-10T01:23:39.133Z,0
2018-07-10T01:24:48.282Z,0
2018-07-10T01:25:57.701Z,0
2018-07-10T01:27:06.871Z,0
2018-07-10T01:28:16.026Z,0
2018-07-10T01:29:25.457Z,0
2018-07-10T01:30:34.624Z,0
2018-07-10T01:31:44.053Z,0
2018-07-10T01:32:53.481Z,0
2018-07-10T01:34:03.162Z,0
2018-07-10T01:35:12.581Z,0
2018-07-10T01:36:22.019Z,0
2018-07-10T01:37:31.165Z,0
2018-07-10T01:38:40.319Z,0
2018-07-10T01:39:49.492Z,0
2018-07-10T01:40:58.646Z,0
2018-07-10T01:42:08.313Z,0
2018-07-10T01:43:17.732Z,0
2018-07-10T01:44:27.177Z,0
2018-07-10T01:45:36.604Z,0
2018-07-10T01:46:45.776Z,0
2018-07-10T01:47:55.205Z,0
2018-07-10T01:49:04.888Z,0
2018-07-10T01:50:14.307Z,0
2018-07-10T01:51:23.472Z,0
2018-07-10T01:52:33.160Z,0
2018-07-10T01:53:42.320Z,0
2018-07-10T01:54:51.751Z,0
2018-07-10T01:56:01.178Z,0
2018-07-10T01:57:10.593Z,0
2018-07-10T01:58:20.005Z,0
2018-07-10T01:59:29.173Z,0
2018-07-10T02:00:38.837Z,0
2018-07-10T02:01:47.978Z,0
2018-07-10T02:02:57.387Z,0
2018-07-10T02:04:06.546Z,0
2018-07-10T02:05:16.220Z,0
2018-07-10T02:06:25.634Z,0
2018-07-10T02:07:34.781Z,0
2018-07-10T02:08:44.199Z,0
2018-07-10T02:09:53.867Z,0
2018-07-10T02:11:03.792Z,0
2018-07-10T02:12:13.222Z,0
2018-07-10T02:13:23.161Z,0
2018-07-10T02:14:32.308Z,0
2018-07-10T02:15:41.749Z,0
2018-07-10T02:16:50.650Z,0
2018-07-10T02:18:00.052Z,0
2018-07-10T02:19:09.744Z,0
2018-07-10T02:20:19.463Z,0
2018-07-10T02:21:28.621Z,0
2018-07-10T02:22:38.596Z,0
2018-07-10T02:23:48.279Z,0
2018-07-10T02:24:57.949Z,0
2018-07-10T02:26:07.131Z,0
2018-07-10T02:27:16.552Z,0
2018-07-10T02:28:25.702Z,0
2018-07-10T02:29:35.126Z,0
2018-07-10T02:30:44.802Z,0
2018-07-10T02:31:53.955Z,0
2018-07-10T02:33:03.125Z,0
2018-07-10T02:34:12.542Z,0
2018-07-10T02:35:22.248Z,0
2018-07-10T02:36:31.920Z,0
2018-07-10T02:37:41.354Z,0
2018-07-10T02:38:50.819Z,0
2018-07-10T02:40:00.476Z,0
2018-07-10T02:41:09.645Z,0
2018-07-10T02:42:19.060Z,0
2018-07-10T02:43:28.488Z,0
2018-07-10T02:44:37.665Z,0
2018-07-10T02:45:47.342Z,0
2018-07-10T02:46:57.011Z,0
2018-07-10T02:48:06.685Z,0
2018-07-10T02:49:15.600Z,0
2018-07-10T02:50:25.042Z,0
2018-07-10T02:51:34.213Z,0
2018-07-10T02:52:43.372Z,0
2018-07-10T02:53:52.788Z,0
2018-07-10T02:55:02.537Z,0
2018-07-10T02:56:12.223Z,0
2018-07-10T02:57:21.887Z,0
2018-07-10T02:58:30.785Z,0
2018-07-10T02:59:40.213Z,0
2018-07-10T03:00:49.390Z,0
2018-07-10T03:01:58.298Z,0
2018-07-10T03:03:07.479Z,0
2018-07-10T03:04:17.154Z,0
2018-07-10T03:05:26.814Z,0
2018-07-10T03:06:36.235Z,0
2018-07-10T03:07:45.385Z,0
2018-07-10T03:08:55.110Z,0
2018-07-10T03:10:04.525Z,0
2018-07-10T03:11:13.928Z,0
2018-07-10T03:12:23.366Z,0
2018-07-10T03:13:32.784Z,0
2018-07-10T03:14:42.721Z,0
2018-07-10T03:15:52.148Z,0
2018-07-10T03:17:01.565Z,0
2018-07-10T03:18:11.262Z,0
2018-07-10T03:19:20.938Z,0
2018-07-10T03:20:30.611Z,0
2018-07-10T03:21:40.313Z,0
2018-07-10T03:22:49.729Z,0
2018-07-10T03:23:59.393Z,0
2018-07-10T03:25:08.830Z,0
2018-07-10T03:26:17.999Z,0
2018-07-10T03:27:27.655Z,0
2018-07-10T03:28:37.069Z,0
2018-07-10T03:29:46.496Z,0
2018-07-10T03:30:56.184Z,0
2018-07-10T03:32:05.619Z,0
2018-07-10T03:33:15.027Z,0
2018-07-10T03:34:24.196Z,0
2018-07-10T03:35:33.857Z,0
2018-07-10T03:36:43.283Z,0
2018-07-10T03:37:51.915Z,0
2018-07-10T03:39:01.568Z,0
2018-07-10T03:40:10.979Z,0
2018-07-10T03:41:20.928Z,0
2018-07-10T03:42:30.342Z,0
2018-07-10T03:43:39.766Z,0
2018-07-10T03:44:49.741Z,0
2018-07-10T03:45:59.286Z,0
2018-07-10T03:47:08.727Z,0
2018-07-10T03:48:17.897Z,0
2018-07-10T03:49:27.062Z,0
2018-07-10T03:50:36.231Z,0
2018-07-10T03:51:45.405Z,0
2018-07-10T03:52:54.557Z,0
2018-07-10T03:54:03.726Z,0
2018-07-10T03:55:12.951Z,0
2018-07-10T03:56:22.358Z,0
2018-07-10T03:57:32.035Z,0
2018-07-10T03:58:41.731Z,0
2018-07-10T03:59:50.628Z,0
2018-07-10T04:00:59.789Z,0
2018-07-10T04:02:08.940Z,0
2018-07-10T04:03:18.602Z,0
2018-07-10T04:04:28.277Z,0
2018-07-10T04:05:37.950Z,0
2018-07-10T04:06:47.376Z,0
2018-07-10T04:07:57.044Z,0
2018-07-10T04:09:06.309Z,0
2018-07-10T04:10:16.204Z,0
2018-07-10T04:11:25.617Z,0
2018-07-10T04:12:34.764Z,0
2018-07-10T04:13:44.173Z,0
2018-07-10T04:14:53.577Z,0
2018-07-10T04:16:02.469Z,0
2018-07-10T04:17:11.376Z,0
2018-07-10T04:18:20.530Z,0
2018-07-10T04:19:29.710Z,0
2018-07-10T04:20:38.855Z,0
2018-07-10T04:21:48.814Z,0
2018-07-10T04:22:57.964Z,0
2018-07-10T04:24:07.648Z,0
2018-07-10T04:25:16.812Z,0
2018-07-10T04:26:25.975Z,0
2018-07-10T04:27:35.390Z,0
2018-07-10T04:28:44.294Z,0
2018-07-10T04:29:53.726Z,4
2018-07-10T04:31:03.648Z,4
2018-07-10T04:32:12.803Z,4
2018-07-10T04:33:22.494Z,4
2018-07-10T04:34:31.383Z,4
2018-07-10T04:35:41.485Z,4
2018-07-10T04:36:51.182Z,4
2018-07-10T04:38:00.640Z,4
2018-07-10T04:39:10.578Z,4
2018-07-10T04:40:20.248Z,4
2018-07-10T04:41:29.662Z,4
2018-07-10T04:42:39.116Z,4
2018-07-10T04:43:48.267Z,4
2018-07-10T04:44:57.674Z,4
2018-07-10T04:46:07.102Z,4
2018-07-10T04:47:16.266Z,0
2018-07-10T04:48:25.935Z,0
2018-07-10T04:49:35.798Z,0
2018-07-10T04:50:45.467Z,0
2018-07-10T04:51:55.126Z,0
2018-07-10T04:53:04.792Z,0
2018-07-10T04:54:14.460Z,0
2018-07-10T04:55:23.963Z,4
2018-07-10T04:56:33.684Z,4
2018-07-10T04:57:43.095Z,0
2018-07-10T04:58:53.035Z,0
2018-07-10T05:00:02.773Z,0
2018-07-10T05:01:12.458Z,0
2018-07-10T05:02:21.873Z,0
2018-07-10T05:03:31.293Z,0
2018-07-10T05:04:41.135Z,0
2018-07-10T05:05:50.694Z,0
2018-07-10T05:07:00.459Z,0
2018-07-10T05:08:10.392Z,0
2018-07-10T05:09:20.073Z,0
2018-07-10T05:10:29.768Z,0
2018-07-10T05:11:38.678Z,0
2018-07-10T05:12:48.352Z,0
2018-07-10T05:13:58.019Z,0
2018-07-10T05:15:07.716Z,4
2018-07-10T05:16:16.641Z,4
2018-07-10T05:17:26.047Z,4
2018-07-10T05:18:35.458Z,4
2018-07-10T05:19:44.364Z,4
2018-07-10T05:20:53.536Z,4
2018-07-10T05:22:02.955Z,4
2018-07-10T05:23:12.862Z,4
2018-07-10T05:24:22.015Z,4
2018-07-10T05:25:31.710Z,4
2018-07-10T05:26:41.144Z,4
2018-07-10T05:27:50.037Z,4
2018-07-10T05:29:00.437Z,4
2018-07-10T05:30:08.928Z,4
2018-07-10T05:31:18.612Z,4
2018-07-10T05:32:28.361Z,4
2018-07-10T05:33:38.304Z,4
2018-07-10T05:34:47.972Z,4
2018-07-10T05:35:57.645Z,4
2018-07-10T05:37:07.387Z,4
2018-07-10T05:38:17.112Z,0
2018-07-10T05:39:26.531Z,0
2018-07-10T05:40:35.696Z,4
2018-07-10T05:41:45.112Z,4
2018-07-10T05:42:54.277Z,4
2018-07-10T05:44:03.451Z,4
2018-07-10T05:45:13.393Z,4
2018-07-10T05:46:23.201Z,0
2018-07-10T05:47:32.439Z,0
2018-07-10T05:48:41.865Z,0
2018-07-10T05:49:51.538Z,4
2018-07-10T05:51:00.697Z,4
2018-07-10T05:52:11.010Z,4
2018-07-10T05:53:20.965Z,4
2018-07-10T05:54:30.903Z,4
2018-07-10T05:55:40.829Z,4
2018-07-10T05:56:49.998Z,4
2018-07-10T05:57:59.440Z,8
2018-07-10T05:59:09.135Z,4
2018-07-10T06:00:18.281Z,8
2018-07-10T06:01:28.213Z,12
2018-07-10T06:02:37.666Z,8
2018-07-10T06:03:47.357Z,12
2018-07-10T06:04:56.781Z,28
2018-07-10T06:06:05.683Z,28
2018-07-10T06:07:15.371Z,32
2018-07-10T06:08:24.794Z,28
2018-07-10T06:09:33.691Z,20
2018-07-10T06:10:42.838Z,28
2018-07-10T06:11:52.018Z,24
2018-07-10T06:13:01.178Z,24
2018-07-10T06:14:11.374Z,28
2018-07-10T06:15:21.079Z,28
2018-07-10T06:16:31.013Z,12
2018-07-10T06:17:40.694Z,12
2018-07-10T06:18:50.384Z,12
2018-07-10T06:19:59.811Z,8
2018-07-10T06:21:10.269Z,8
2018-07-10T06:22:20.172Z,20
2018-07-10T06:23:29.757Z,24
2018-07-10T06:24:39.430Z,8
2018-07-10T06:25:48.083Z,8
2018-07-10T06:26:57.522Z,12
2018-07-10T06:28:07.261Z,24
2018-07-10T06:29:16.433Z,4
2018-07-10T06:30:26.068Z,16
2018-07-10T06:31:35.540Z,24
2018-07-10T06:32:44.457Z,12
2018-07-10T06:33:54.141Z,16
2018-07-10T06:35:03.335Z,8
2018-07-10T06:36:12.796Z,12
2018-07-10T06:37:22.482Z,8
2018-07-10T06:38:31.927Z,8
2018-07-10T06:39:41.429Z,16
2018-07-10T06:40:50.951Z,12
2018-07-10T06:42:00.140Z,24
2018-07-10T06:43:09.845Z,32
2018-07-10T06:44:19.270Z,12
2018-07-10T06:45:28.461Z,28
2018-07-10T06:46:37.899Z,28
2018-07-10T06:47:47.330Z,12
2018-07-10T06:48:56.391Z,8
2018-07-10T06:50:05.843Z,4
2018-07-10T06:51:14.753Z,8
2018-07-10T06:52:24.444Z,8
2018-07-10T06:53:34.508Z,8
2018-07-10T06:54:44.364Z,8
2018-07-10T06:55:54.332Z,8
2018-07-10T06:57:03.763Z,12
2018-07-10T06:58:12.931Z,8
2018-07-10T06:59:22.393Z,8
2018-07-10T07:00:31.310Z,4
2018-07-10T07:01:40.225Z,8
2018-07-10T07:02:49.911Z,4
2018-07-10T07:03:59.328Z,8
2018-07-10T07:05:08.759Z,4
2018-07-10T07:06:18.445Z,4
2018-07-10T07:07:27.899Z,4
2018-07-10T07:08:37.328Z,4
2018-07-10T07:09:47.102Z,4
2018-07-10T07:10:56.286Z,8
2018-07-10T07:12:05.713Z,8
2018-07-10T07:13:15.427Z,8
2018-07-10T07:14:25.101Z,8
2018-07-10T07:15:34.544Z,8
2018-07-10T07:16:43.722Z,4
2018-07-10T07:17:53.658Z,4
2018-07-10T07:19:02.547Z,8
2018-07-10T07:20:12.240Z,4
2018-07-10T07:21:21.661Z,8
2018-07-10T07:22:31.586Z,8
2018-07-10T07:23:41.445Z,8
2018-07-10T07:24:51.264Z,8
2018-07-10T07:26:00.476Z,4
2018-07-10T07:27:10.418Z,4
2018-07-10T07:28:19.571Z,8
2018-07-10T07:29:29.269Z,8
2018-07-10T07:30:38.707Z,12
2018-07-10T07:31:47.871Z,16
2018-07-10T07:32:57.583Z,12
2018-07-10T07:34:07.263Z,16
2018-07-10T07:35:16.939Z,12
2018-07-10T07:36:26.627Z,16
2018-07-10T07:37:36.078Z,16
2018-07-10T07:38:45.502Z,16
2018-07-10T07:39:55.191Z,16
2018-07-10T07:41:04.622Z,20
2018-07-10T07:42:14.054Z,20
2018-07-10T07:43:23.989Z,16
2018-07-10T07:44:33.279Z,12
2018-07-10T07:45:42.469Z,12
2018-07-10T07:46:52.412Z,8
2018-07-10T07:48:01.571Z,12
2018-07-10T07:49:10.484Z,12
2018-07-10T07:50:19.907Z,16
2018-07-10T07:51:29.596Z,16
2018-07-10T07:52:39.325Z,16
2018-07-10T07:53:48.777Z,16
2018-07-10T07:54:58.197Z,16
2018-07-10T07:56:07.669Z,12
2018-07-10T07:57:16.846Z,12
2018-07-10T07:58:26.664Z,16
2018-07-10T07:59:36.427Z,12
2018-07-10T08:00:45.863Z,16
2018-07-10T08:01:55.689Z,12
2018-07-10T08:03:04.877Z,12
2018-07-10T08:04:14.296Z,16
2018-07-10T08:05:24.218Z,12
2018-07-10T08:06:33.633Z,12
2018-07-10T08:07:43.098Z,12
2018-07-10T08:08:52.262Z,16
2018-07-10T08:10:01.696Z,12
2018-07-10T08:11:11.204Z,12
2018-07-10T08:12:21.006Z,12
2018-07-10T08:13:30.708Z,12
2018-07-10T08:14:40.151Z,12
2018-07-10T08:15:49.599Z,12
2018-07-10T08:16:59.476Z,12
2018-07-10T08:18:08.896Z,8
2018-07-10T08:19:19.246Z,12
2018-07-10T08:20:28.932Z,8
2018-07-10T08:21:38.363Z,12
2018-07-10T08:22:47.311Z,16
2018-07-10T08:23:56.758Z,12
2018-07-10T08:25:05.670Z,16
2018-07-10T08:26:15.104Z,16
2018-07-10T08:27:24.782Z,20
2018-07-10T08:28:34.209Z,28
2018-07-10T08:29:43.702Z,44
2018-07-10T08:30:53.639Z,24
2018-07-10T08:32:03.339Z,32
2018-07-10T08:33:13.035Z,36
2018-07-10T08:34:22.526Z,32
2018-07-10T08:35:32.495Z,28
2018-07-10T08:36:41.667Z,20
2018-07-10T08:37:50.837Z,12
2018-07-10T08:39:00.521Z,12
2018-07-10T08:40:09.694Z,16
2018-07-10T08:41:19.118Z,16
2018-07-10T08:42:28.803Z,20
2018-07-10T08:43:38.261Z,20
2018-07-10T08:44:47.455Z,16
2018-07-10T08:45:56.872Z,16
2018-07-10T08:47:05.781Z,12
2018-07-10T08:48:15.206Z,12
2018-07-10T08:49:24.427Z,8
2018-07-10T08:50:33.869Z,8
2018-07-10T08:51:43.851Z,8
2018-07-10T08:52:53.021Z,12
2018-07-10T08:54:02.450Z,8
2018-07-10T08:55:12.371Z,8
2018-07-10T08:56:22.310Z,4
2018-07-10T08:57:31.737Z,4
2018-07-10T08:58:41.177Z,8
2018-07-10T08:59:51.099Z,8
2018-07-10T09:01:00.782Z,8
2018-07-10T09:02:10.291Z,8
2018-07-10T09:03:19.722Z,8
2018-07-10T09:04:29.408Z,8
2018-07-10T09:05:38.838Z,8
2018-07-10T09:06:48.536Z,8
2018-07-10T09:07:57.533Z,8
2018-07-10T09:09:07.350Z,8
2018-07-10T09:10:16.803Z,8
2018-07-10T09:11:26.492Z,8
2018-07-10T09:12:35.948Z,12
2018-07-10T09:13:45.408Z,12
2018-07-10T09:14:54.637Z,12
2018-07-10T09:16:04.087Z,12
2018-07-10T09:17:13.268Z,12
2018-07-10T09:18:22.941Z,12
2018-07-10T09:19:32.367Z,8
2018-07-10T09:20:41.329Z,8
2018-07-10T09:21:50.509Z,8
2018-07-10T09:22:59.418Z,4
2018-07-10T09:24:09.142Z,8
2018-07-10T09:25:18.565Z,8
2018-07-10T09:26:27.984Z,8
2018-07-10T09:27:37.400Z,8
2018-07-10T09:28:47.094Z,8
2018-07-10T09:29:56.528Z,8
2018-07-10T09:31:06.219Z,8
2018-07-10T09:32:14.863Z,8
2018-07-10T09:33:24.721Z,8
2018-07-10T09:34:34.395Z,8
2018-07-10T09:35:43.803Z,8
2018-07-10T09:36:52.720Z,8
2018-07-10T09:38:02.342Z,8
2018-07-10T09:39:11.855Z,12
2018-07-10T09:40:21.036Z,8
2018-07-10T09:41:30.715Z,8
2018-07-10T09:42:39.883Z,8
2018-07-10T09:43:49.303Z,8
2018-07-10T09:44:59.013Z,8
2018-07-10T09:46:08.464Z,8
2018-07-10T09:47:17.634Z,8
2018-07-10T09:48:26.827Z,8
2018-07-10T09:49:36.002Z,12
2018-07-10T09:50:45.182Z,8
2018-07-10T09:51:55.112Z,8
2018-07-10T09:53:04.542Z,8
2018-07-10T09:54:14.256Z,12
2018-07-10T09:55:23.701Z,8
2018-07-10T09:56:33.145Z,8
2018-07-10T09:57:42.591Z,8
2018-07-10T09:58:51.502Z,8
2018-07-10T10:00:00.673Z,8
2018-07-10T10:01:10.401Z,8
2018-07-10T10:02:19.817Z,8
2018-07-10T10:03:29.256Z,8
2018-07-10T10:04:38.157Z,8
2018-07-10T10:05:47.327Z,4
2018-07-10T10:06:56.753Z,4
2018-07-10T10:08:06.704Z,8
2018-07-10T10:09:16.123Z,4
2018-07-10T10:10:25.808Z,4
2018-07-10T10:11:34.971Z,8
2018-07-10T10:12:44.657Z,8
2018-07-10T10:13:53.577Z,8
2018-07-10T10:15:03.256Z,8
2018-07-10T10:16:12.458Z,8
2018-07-10T10:17:22.144Z,12
2018-07-10T10:18:31.077Z,12
2018-07-10T10:19:40.782Z,12
2018-07-10T10:20:49.962Z,8
2018-07-10T10:21:59.650Z,8
2018-07-10T10:23:09.080Z,8
2018-07-10T10:24:18.769Z,12
2018-07-10T10:25:27.938Z,12
2018-07-10T10:26:37.365Z,12
2018-07-10T10:27:46.534Z,12
2018-07-10T10:28:55.995Z,12
2018-07-10T10:30:05.410Z,12
2018-07-10T10:31:15.127Z,8
2018-07-10T10:32:24.291Z,12
2018-07-10T10:33:33.970Z,12
2018-07-10T10:34:43.140Z,12
2018-07-10T10:35:52.837Z,16
2018-07-10T10:37:02.264Z,12
2018-07-10T10:38:11.940Z,12
2018-07-10T10:39:21.130Z,12
2018-07-10T10:40:30.573Z,16
2018-07-10T10:41:40.626Z,16
2018-07-10T10:42:49.823Z,16
2018-07-10T10:43:58.983Z,12
2018-07-10T10:45:08.210Z,12
2018-07-10T10:46:17.624Z,8
2018-07-10T10:47:27.282Z,12
2018-07-10T10:48:36.497Z,12
2018-07-10T10:49:45.943Z,8
2018-07-10T10:50:55.138Z,8
2018-07-10T10:52:04.565Z,8
2018-07-10T10:53:13.491Z,8
2018-07-10T10:54:22.928Z,8
2018-07-10T10:55:32.090Z,8
2018-07-10T10:56:41.764Z,8
2018-07-10T10:57:50.920Z,8
2018-07-10T10:58:59.819Z,12
2018-07-10T11:00:09.528Z,12
2018-07-10T11:01:18.694Z,12
2018-07-10T11:02:29.064Z,12
2018-07-10T11:03:38.141Z,16
2018-07-10T11:04:47.330Z,12
2018-07-10T11:05:57.001Z,12
2018-07-10T11:07:06.670Z,12
2018-07-10T11:08:15.585Z,12
2018-07-10T11:09:25.265Z,12
2018-07-10T11:10:34.684Z,12
2018-07-10T11:11:44.390Z,12
2018-07-10T11:12:53.582Z,12
2018-07-10T11:14:03.033Z,12
2018-07-10T11:15:12.211Z,12
2018-07-10T11:16:21.364Z,12
2018-07-10T11:17:30.016Z,8
2018-07-10T11:18:39.442Z,8
2018-07-10T11:19:49.173Z,8
2018-07-10T11:20:58.844Z,8
2018-07-10T11:22:08.262Z,4
2018-07-10T11:23:17.436Z,8
2018-07-10T11:24:26.854Z,8
2018-07-10T11:25:36.554Z,8
2018-07-10T11:26:45.477Z,8
2018-07-10T11:27:54.904Z,8
2018-07-10T11:29:04.318Z,8
2018-07-10T11:30:14.006Z,4
2018-07-10T11:31:22.936Z,8
2018-07-10T11:32:32.890Z,4
2018-07-10T11:33:42.828Z,8
2018-07-10T11:34:52.273Z,4
2018-07-10T11:36:01.458Z,8
2018-07-10T11:37:10.620Z,8
2018-07-10T11:38:20.695Z,8
2018-07-10T11:39:30.798Z,4
2018-07-10T11:40:39.967Z,8
2018-07-10T11:41:49.133Z,4
2018-07-10T11:42:58.828Z,8
2018-07-10T11:44:07.988Z,8
2018-07-10T11:45:17.670Z,8
2018-07-10T11:46:27.404Z,8
2018-07-10T11:47:37.137Z,8
2018-07-10T11:48:46.319Z,8
2018-07-10T11:49:56.096Z,8
2018-07-10T11:51:05.619Z,12
2018-07-10T11:52:14.861Z,12
2018-07-10T11:53:24.628Z,8
2018-07-10T11:54:33.894Z,12
2018-07-10T11:55:43.118Z,8
2018-07-10T11:56:52.289Z,12
2018-07-10T11:58:01.961Z,12
2018-07-10T11:59:11.138Z,8
2018-07-10T12:00:20.593Z,8
2018-07-10T12:01:30.038Z,8
2018-07-10T12:02:39.469Z,8
2018-07-10T12:03:48.625Z,8
2018-07-10T12:04:58.234Z,8
2018-07-10T12:06:08.226Z,8
2018-07-10T12:07:17.397Z,8
2018-07-10T12:08:26.571Z,4
2018-07-10T12:09:36.240Z,4
2018-07-10T12:10:46.114Z,4
2018-07-10T12:11:55.289Z,4
2018-07-10T12:13:04.747Z,4
2018-07-10T12:14:13.910Z,4
2018-07-10T12:15:23.603Z,4
2018-07-10T12:16:33.029Z,4
2018-07-10T12:17:42.190Z,4
2018-07-10T12:18:51.092Z,8
2018-07-10T12:20:00.260Z,4
2018-07-10T12:21:09.691Z,4
2018-07-10T12:22:19.624Z,8
2018-07-10T12:23:29.342Z,8
2018-07-10T12:24:38.794Z,8
2018-07-10T12:25:48.224Z,12
2018-07-10T12:26:57.912Z,8
2018-07-10T12:28:08.009Z,12
2018-07-10T12:29:17.167Z,8
2018-07-10T12:30:26.092Z,12
2018-07-10T12:31:35.267Z,12
2018-07-10T12:32:44.456Z,12
2018-07-10T12:33:54.193Z,12
2018-07-10T12:35:03.893Z,8
2018-07-10T12:36:13.348Z,8
2018-07-10T12:37:22.263Z,8
2018-07-10T12:38:32.182Z,8
2018-07-10T12:39:41.094Z,8
2018-07-10T12:40:50.509Z,4
2018-07-10T12:41:59.682Z,8
2018-07-10T12:43:08.852Z,8
2018-07-10T12:44:18.549Z,8
2018-07-10T12:45:28.918Z,8
2018-07-10T12:46:38.105Z,8
2018-07-10T12:47:47.530Z,8
2018-07-10T12:48:56.955Z,8
2018-07-10T12:50:06.363Z,8
2018-07-10T12:51:16.044Z,8
2018-07-10T12:52:25.713Z,4
2018-07-10T12:53:35.403Z,4
2018-07-10T12:54:45.076Z,4
2018-07-10T12:55:54.752Z,4
2018-07-10T12:57:04.006Z,4
2018-07-10T12:58:13.177Z,4
2018-07-10T12:59:22.352Z,4
2018-07-10T13:00:32.028Z,4
2018-07-10T13:01:41.461Z,4
2018-07-10T13:02:50.881Z,4
2018-07-10T13:04:00.064Z,4
2018-07-10T13:05:09.237Z,4
2018-07-10T13:06:19.230Z,4
2018-07-10T13:07:28.644Z,4
2018-07-10T13:08:37.824Z,8
2018-07-10T13:09:47.517Z,4
2018-07-10T13:10:56.951Z,4
2018-07-10T13:12:06.881Z,8
2018-07-10T13:13:16.345Z,4
2018-07-10T13:14:25.758Z,4
2018-07-10T13:15:35.466Z,4
2018-07-10T13:16:44.903Z,4
2018-07-10T13:17:54.317Z,4
2018-07-10T13:19:03.728Z,4
2018-07-10T13:20:13.695Z,8
2018-07-10T13:21:22.909Z,4
2018-07-10T13:22:32.065Z,4
2018-07-10T13:23:41.756Z,4
2018-07-10T13:24:50.672Z,4
2018-07-10T13:26:00.097Z,4
2018-07-10T13:27:09.064Z,8
2018-07-10T13:28:18.262Z,8
2018-07-10T13:29:26.913Z,8
2018-07-10T13:30:36.610Z,8
2018-07-10T13:31:46.030Z,12
2018-07-10T13:32:55.458Z,12
2018-07-10T13:34:04.373Z,12
2018-07-10T13:35:13.551Z,16
2018-07-10T13:36:23.220Z,32
2018-07-10T13:37:32.907Z,20
2018-07-10T13:38:42.586Z,24
2018-07-10T13:39:51.764Z,36
2018-07-10T13:41:00.953Z,20
2018-07-10T13:42:10.647Z,16
2018-07-10T13:43:20.713Z,16
2018-07-10T13:44:30.391Z,16
2018-07-10T13:45:40.070Z,16
2018-07-10T13:46:49.510Z,20
2018-07-10T13:47:58.939Z,20
2018-07-10T13:49:08.127Z,20
2018-07-10T13:50:17.646Z,16
2018-07-10T13:51:27.059Z,16
2018-07-10T13:52:36.792Z,24
2018-07-10T13:53:46.249Z,16
2018-07-10T13:54:55.672Z,16
2018-07-10T13:56:05.329Z,16
2018-07-10T13:57:15.026Z,72
2018-07-10T13:58:24.971Z,16
2018-07-10T13:59:34.390Z,12
2018-07-10T14:00:43.819Z,12
2018-07-10T14:01:53.239Z,12
2018-07-10T14:03:02.912Z,12
2018-07-10T14:04:12.433Z,8
2018-07-10T14:05:21.990Z,12
2018-07-10T14:06:31.416Z,20
2018-07-10T14:07:40.331Z,16
2018-07-10T14:08:50.048Z,16
2018-07-10T14:09:59.738Z,52
2018-07-10T14:11:09.496Z,24
2018-07-10T14:12:19.302Z,76
2018-07-10T14:13:29.201Z,32
2018-07-10T14:14:38.667Z,28
2018-07-10T14:15:48.369Z,16
2018-07-10T14:16:58.054Z,72
2018-07-10T14:18:06.983Z,12
2018-07-10T14:19:16.416Z,68
2018-07-10T14:20:26.097Z,24
2018-07-10T14:21:35.254Z,76
2018-07-10T14:22:44.667Z,44
2018-07-10T14:23:54.385Z,12
2018-07-10T14:25:03.825Z,16
2018-07-10T14:26:13.503Z,20
2018-07-10T14:27:23.444Z,76
2018-07-10T14:28:32.374Z,28
2018-07-10T14:29:41.052Z,20
2018-07-10T14:30:50.718Z,40
2018-07-10T14:31:59.625Z,12
2018-07-10T14:33:08.521Z,12
2018-07-10T14:34:17.922Z,12
2018-07-10T14:35:28.036Z,8
2018-07-10T14:36:37.443Z,8
2018-07-10T14:37:46.863Z,8
2018-07-10T14:38:56.309Z,8
2018-07-10T14:40:05.472Z,12
2018-07-10T14:41:14.636Z,12
2018-07-10T14:42:23.795Z,16
2018-07-10T14:43:33.465Z,32
2018-07-10T14:44:43.168Z,24
2018-07-10T14:45:52.852Z,20
2018-07-10T14:47:02.016Z,12
2018-07-10T14:48:11.442Z,12
2018-07-10T14:49:20.604Z,8
2018-07-10T14:50:30.018Z,8
2018-07-10T14:51:39.429Z,12
2018-07-10T14:52:48.875Z,12
2018-07-10T14:53:57.785Z,12
2018-07-10T14:55:06.747Z,12
2018-07-10T14:56:16.191Z,12
2018-07-10T14:57:25.613Z,8
2018-07-10T14:58:35.050Z,8
2018-07-10T14:59:44.230Z,8
2018-07-10T15:00:53.162Z,8
2018-07-10T15:02:02.424Z,8
2018-07-10T15:03:11.612Z,8
2018-07-10T15:04:20.522Z,8
2018-07-10T15:05:29.936Z,8
2018-07-10T15:06:39.112Z,4
2018-07-10T15:07:48.787Z,4
2018-07-10T15:08:58.208Z,8
2018-07-10T15:10:07.372Z,8
2018-07-10T15:11:16.031Z,8
2018-07-10T15:12:25.702Z,8
2018-07-10T15:13:34.867Z,8
2018-07-10T15:14:44.572Z,8
2018-07-10T15:15:53.835Z,4
2018-07-10T15:17:02.736Z,4
2018-07-10T15:18:12.140Z,4
2018-07-10T15:19:21.613Z,4
2018-07-10T15:20:30.770Z,4
2018-07-10T15:21:39.928Z,4
2018-07-10T15:22:49.633Z,4
2018-07-10T15:23:59.075Z,4
2018-07-10T15:25:08.490Z,4
2018-07-10T15:26:17.931Z,4
2018-07-10T15:27:27.378Z,0
2018-07-10T15:28:36.795Z,0
2018-07-10T15:29:45.964Z,4
2018-07-10T15:30:55.651Z,8
2018-07-10T15:32:05.068Z,8
2018-07-10T15:33:13.960Z,8
2018-07-10T15:34:23.397Z,8
2018-07-10T15:35:33.101Z,4
2018-07-10T15:36:42.517Z,4
2018-07-10T15:37:51.685Z,4
2018-07-10T15:39:01.372Z,4
2018-07-10T15:40:10.795Z,4
2018-07-10T15:41:19.711Z,4
2018-07-10T15:42:28.873Z,8
2018-07-10T15:43:38.037Z,4
2018-07-10T15:44:47.767Z,8
2018-07-10T15:45:57.206Z,4
2018-07-10T15:47:06.114Z,4
2018-07-10T15:48:15.793Z,4
2018-07-10T15:49:25.217Z,0
2018-07-10T15:50:34.894Z,0
2018-07-10T15:51:44.583Z,0
2018-07-10T15:52:54.557Z,0
2018-07-10T15:54:03.976Z,4
2018-07-10T15:55:13.398Z,0
2018-07-10T15:56:22.296Z,0
2018-07-10T15:57:31.724Z,4
2018-07-10T15:58:40.687Z,4
2018-07-10T15:59:49.865Z,8
2018-07-10T16:00:59.556Z,4
2018-07-10T16:02:08.712Z,4
2018-07-10T16:03:18.130Z,12
2018-07-10T16:04:27.562Z,12
2018-07-10T16:05:36.722Z,8
2018-07-10T16:06:45.626Z,8
2018-07-10T16:07:54.794Z,4
2018-07-10T16:09:04.474Z,4
2018-07-10T16:10:14.161Z,8
2018-07-10T16:11:23.084Z,12
2018-07-10T16:12:32.002Z,8
2018-07-10T16:13:41.928Z,8
2018-07-10T16:14:51.341Z,4
2018-07-10T16:16:01.013Z,4
2018-07-10T16:17:10.674Z,4
2018-07-10T16:18:20.088Z,4
2018-07-10T16:19:29.501Z,4
2018-07-10T16:20:38.691Z,4
2018-07-10T16:21:47.897Z,12
2018-07-10T16:22:57.067Z,8
2018-07-10T16:24:07.020Z,8
2018-07-10T16:25:17.159Z,4
2018-07-10T16:26:26.852Z,4
2018-07-10T16:27:35.750Z,8
2018-07-10T16:28:45.180Z,4
2018-07-10T16:29:54.855Z,4
2018-07-10T16:31:04.271Z,4
2018-07-10T16:32:13.505Z,4
2018-07-10T16:33:22.941Z,4
2018-07-10T16:34:32.375Z,4
2018-07-10T16:35:42.077Z,4
2018-07-10T16:36:51.519Z,8
2018-07-10T16:38:01.467Z,4
2018-07-10T16:39:10.887Z,8
2018-07-10T16:40:20.349Z,4
2018-07-10T16:41:29.782Z,8
2018-07-10T16:42:38.681Z,8
2018-07-10T16:43:48.103Z,4
2018-07-10T16:44:57.649Z,8
2018-07-10T16:46:06.563Z,8
2018-07-10T16:47:15.468Z,8
2018-07-10T16:48:24.386Z,8
2018-07-10T16:49:33.314Z,4
2018-07-10T16:50:42.723Z,8
2018-07-10T16:51:52.397Z,8
2018-07-10T16:53:01.590Z,8
2018-07-10T16:54:11.004Z,8
2018-07-10T16:55:20.152Z,12
2018-07-10T16:56:29.577Z,8